createdAt,value
2023-05-09T00:00:25.970Z,1011.60
2023-05-09T00:01:25.970Z,1011.56
2023-05-09T00:02:26.031Z,1011.54
2023-05-09T00:03:25.924Z,1011.58
2023-05-09T00:04:25.962Z,1011.54
2023-05-09T00:05:25.917Z,1011.54
2023-05-09T00:06:25.902Z,1011.46
2023-05-09T00:07:25.880Z,1011.52
2023-05-09T00:08:25.893Z,1011.47
2023-05-09T00:09:25.866Z,1011.45
2023-05-09T00:10:25.848Z,1011.45
2023-05-09T00:11:25.841Z,1011.45
2023-05-09T00:12:25.834Z,1011.46
2023-05-09T00:13:25.864Z,1011.42
2023-05-09T00:14:25.798Z,1011.41
2023-05-09T00:15:25.782Z,1011.42
2023-05-09T00:16:25.808Z,1011.41
2023-05-09T00:17:25.797Z,1011.42
2023-05-09T00:18:25.840Z,1011.39
2023-05-09T00:19:25.779Z,1011.42
2023-05-09T00:20:25.738Z,1011.44
2023-05-09T00:21:25.729Z,1011.43
2023-05-09T00:22:25.737Z,1011.47
2023-05-09T00:23:25.721Z,1011.41
2023-05-09T00:24:25.709Z,1011.46
2023-05-09T00:25:25.685Z,1011.42
2023-05-09T00:26:25.663Z,1011.41
2023-05-09T00:27:25.657Z,1011.37
2023-05-09T00:28:25.660Z,1011.36
2023-05-09T00:29:25.630Z,1011.28
2023-05-09T00:30:25.647Z,1011.27
2023-05-09T00:31:25.660Z,1011.26
2023-05-09T00:32:25.668Z,1011.25
2023-05-09T00:33:25.591Z,1011.20
2023-05-09T00:34:25.604Z,1011.22
2023-05-09T00:35:25.578Z,1011.20
2023-05-09T00:36:25.561Z,1011.18
2023-05-09T00:37:25.544Z,1011.15
2023-05-09T00:38:25.534Z,1011.18
2023-05-09T00:39:25.556Z,1011.16
2023-05-09T00:40:25.613Z,1011.12
2023-05-09T00:41:25.497Z,1011.06
2023-05-09T00:42:25.527Z,1011.04
2023-05-09T00:43:25.480Z,1011.06
2023-05-09T00:44:25.466Z,1011.00
2023-05-09T00:45:25.476Z,1010.99
2023-05-09T00:46:25.471Z,1010.99
2023-05-09T00:47:25.454Z,1010.96
2023-05-09T00:48:25.448Z,1010.93
2023-05-09T00:49:25.415Z,1010.97
2023-05-09T00:50:25.413Z,1010.95
2023-05-09T00:51:25.395Z,1010.91
2023-05-09T00:52:25.407Z,1010.91
2023-05-09T00:53:25.376Z,1010.94
2023-05-09T00:54:25.353Z,1010.89
2023-05-09T00:55:25.343Z,1010.92
2023-05-09T00:56:25.334Z,1010.91
2023-05-09T00:57:25.348Z,1010.89
2023-05-09T00:58:25.333Z,1010.86
2023-05-09T00:59:25.303Z,1010.88
2023-05-09T01:00:25.297Z,1010.83
2023-05-09T01:01:25.295Z,1010.87
2023-05-09T01:02:25.333Z,1010.83
2023-05-09T01:03:25.347Z,1010.82
2023-05-09T01:04:25.254Z,1010.79
2023-05-09T01:05:25.254Z,1010.81
2023-05-09T01:06:25.221Z,1010.79
2023-05-09T01:07:25.214Z,1010.79
2023-05-09T01:08:25.201Z,1010.77
2023-05-09T01:09:31.251Z,1010.74
2023-05-09T01:10:25.988Z,1010.72
2023-05-09T01:11:25.185Z,1010.73
2023-05-09T01:12:25.155Z,1010.72
2023-05-09T01:13:25.204Z,1010.69
2023-05-09T01:14:25.162Z,1010.68
2023-05-09T01:15:25.130Z,1010.67
2023-05-09T01:16:25.121Z,1010.64
2023-05-09T01:17:25.098Z,1010.64
2023-05-09T01:18:25.085Z,1010.64
2023-05-09T01:19:25.079Z,1010.64
2023-05-09T01:20:25.087Z,1010.64
2023-05-09T01:21:25.060Z,1010.62
2023-05-09T01:22:25.042Z,1010.60
2023-05-09T01:23:25.040Z,1010.60
2023-05-09T01:24:25.020Z,1010.58
2023-05-09T01:25:25.037Z,1010.59
2023-05-09T01:26:24.994Z,1010.55
2023-05-09T01:27:24.984Z,1010.56
2023-05-09T01:28:24.974Z,1010.55
2023-05-09T01:29:24.961Z,1010.54
2023-05-09T01:30:24.985Z,1010.55
2023-05-09T01:31:24.970Z,1010.53
2023-05-09T01:32:24.938Z,1010.54
2023-05-09T01:33:24.935Z,1010.56
2023-05-09T01:34:24.909Z,1010.51
2023-05-09T01:35:24.904Z,1010.50
2023-05-09T01:36:24.904Z,1010.49
2023-05-09T01:37:24.892Z,1010.52
2023-05-09T01:38:24.888Z,1010.49
2023-05-09T01:39:24.854Z,1010.49
2023-05-09T01:40:24.861Z,1010.47
2023-05-09T01:41:24.834Z,1010.47
2023-05-09T01:42:24.815Z,1010.43
2023-05-09T01:43:24.815Z,1010.41
2023-05-09T01:44:24.800Z,1010.42
2023-05-09T01:45:24.795Z,1010.43
2023-05-09T01:46:24.829Z,1010.40
2023-05-09T01:47:24.773Z,1010.40
2023-05-09T01:48:24.757Z,1010.38
2023-05-09T01:49:24.746Z,1010.37
2023-05-09T01:50:24.741Z,1010.35
2023-05-09T01:51:24.749Z,1010.35
2023-05-09T01:52:24.707Z,1010.31
2023-05-09T01:53:24.707Z,1010.30
2023-05-09T01:54:24.683Z,1010.30
2023-05-09T01:55:24.673Z,1010.31
2023-05-09T01:56:24.666Z,1010.30
2023-05-09T01:57:24.676Z,1010.31
2023-05-09T01:58:24.636Z,1010.31
2023-05-09T01:59:24.629Z,1010.25
2023-05-09T02:00:24.620Z,1010.25
2023-05-09T02:01:24.691Z,1010.28
2023-05-09T02:02:24.627Z,1010.30
2023-05-09T02:03:24.636Z,1010.30
2023-05-09T02:04:24.577Z,1010.27
2023-05-09T02:05:24.565Z,1010.30
2023-05-09T02:06:24.586Z,1010.24
2023-05-09T02:07:24.554Z,1010.23
2023-05-09T02:08:24.530Z,1010.24
2023-05-09T02:09:24.557Z,1010.19
2023-05-09T02:10:24.512Z,1010.17
2023-05-09T02:11:24.493Z,1010.20
2023-05-09T02:12:24.516Z,1010.20
2023-05-09T02:13:24.573Z,1010.19
2023-05-09T02:14:24.469Z,1010.23
2023-05-09T02:15:24.474Z,1010.23
2023-05-09T02:16:24.495Z,1010.20
2023-05-09T02:17:24.470Z,1010.22
2023-05-09T02:18:24.431Z,1010.24
2023-05-09T02:19:24.401Z,1010.22
2023-05-09T02:20:24.394Z,1010.23
2023-05-09T02:21:24.395Z,1010.22
2023-05-09T02:22:24.372Z,1010.21
2023-05-09T02:23:24.385Z,1010.21
2023-05-09T02:24:24.360Z,1010.14
2023-05-09T02:25:24.341Z,1010.18
2023-05-09T02:26:24.323Z,1010.20
2023-05-09T02:27:24.319Z,1010.16
2023-05-09T02:28:24.329Z,1010.14
2023-05-09T02:29:24.303Z,1010.17
2023-05-09T02:30:24.303Z,1010.16
2023-05-09T02:31:24.313Z,1010.14
2023-05-09T02:32:24.264Z,1010.11
2023-05-09T02:33:24.247Z,1010.10
2023-05-09T02:34:24.254Z,1010.07
2023-05-09T02:35:24.222Z,1010.08
2023-05-09T02:36:24.209Z,1010.07
2023-05-09T02:37:24.225Z,1010.06
2023-05-09T02:38:24.215Z,1010.09
2023-05-09T02:39:24.188Z,1010.09
2023-05-09T02:40:24.189Z,1010.09
2023-05-09T02:41:24.163Z,1010.05
2023-05-09T02:42:24.169Z,1010.10
2023-05-09T02:43:24.196Z,1010.10
2023-05-09T02:44:24.152Z,1010.13
2023-05-09T02:45:24.110Z,1010.10
2023-05-09T02:46:24.141Z,1010.08
2023-05-09T02:47:24.138Z,1010.09
2023-05-09T02:48:24.077Z,1010.09
2023-05-09T02:49:31.909Z,1010.09
2023-05-09T02:50:24.061Z,1010.12
2023-05-09T02:51:24.053Z,1010.09
2023-05-09T02:52:24.033Z,1010.10
2023-05-09T02:53:24.104Z,1010.09
2023-05-09T02:54:24.035Z,1010.07
2023-05-09T02:55:24.012Z,1010.06
2023-05-09T02:56:23.991Z,1010.06
2023-05-09T02:57:23.982Z,1010.05
2023-05-09T02:58:23.976Z,1010.05
2023-05-09T02:59:23.989Z,1010.07
2023-05-09T03:00:23.936Z,1010.06
2023-05-09T03:01:24.113Z,1010.07
2023-05-09T03:02:24.036Z,1010.01
2023-05-09T03:03:23.988Z,1010.01
2023-05-09T03:04:23.903Z,1010.05
2023-05-09T03:05:23.922Z,1010.04
2023-05-09T03:06:23.877Z,1010.01
2023-05-09T03:07:23.872Z,1010.02
2023-05-09T03:08:23.858Z,1009.98
2023-05-09T03:09:23.847Z,1009.99
2023-05-09T03:10:23.842Z,1010.01
2023-05-09T03:11:23.848Z,1009.94
2023-05-09T03:12:23.809Z,1009.99
2023-05-09T03:13:23.941Z,1009.98
2023-05-09T03:14:23.794Z,1009.95
2023-05-09T03:15:23.802Z,1009.95
2023-05-09T03:16:23.963Z,1009.93
2023-05-09T03:17:23.751Z,1009.93
2023-05-09T03:18:23.758Z,1009.94
2023-05-09T03:19:23.760Z,1009.90
2023-05-09T03:20:23.726Z,1009.88
2023-05-09T03:21:23.711Z,1009.82
2023-05-09T03:22:23.697Z,1009.85
2023-05-09T03:23:23.698Z,1009.86
2023-05-09T03:24:23.694Z,1009.87
2023-05-09T03:25:23.681Z,1009.88
2023-05-09T03:26:23.655Z,1009.84
2023-05-09T03:27:23.648Z,1009.83
2023-05-09T03:28:23.639Z,1009.84
2023-05-09T03:29:23.643Z,1009.82
2023-05-09T03:30:23.614Z,1009.84
2023-05-09T03:31:23.651Z,1009.84
2023-05-09T03:32:23.641Z,1009.82
2023-05-09T03:33:23.588Z,1009.81
2023-05-09T03:34:23.568Z,1009.81
2023-05-09T03:35:23.583Z,1009.79
2023-05-09T03:36:38.495Z,1009.80
2023-05-09T03:37:24.902Z,1009.79
2023-05-09T03:38:23.527Z,1009.80
2023-05-09T03:39:23.514Z,1009.80
2023-05-09T03:40:23.527Z,1009.76
2023-05-09T03:41:23.498Z,1009.82
2023-05-09T03:42:23.480Z,1009.85
2023-05-09T03:43:23.483Z,1009.83
2023-05-09T03:44:23.480Z,1009.85
2023-05-09T03:45:23.476Z,1009.83
2023-05-09T03:46:23.487Z,1009.79
2023-05-09T03:47:23.432Z,1009.79
2023-05-09T03:48:23.409Z,1009.80
2023-05-09T03:49:23.397Z,1009.81
2023-05-09T03:50:23.407Z,1009.78
2023-05-09T03:51:23.385Z,1009.76
2023-05-09T03:52:23.373Z,1009.76
2023-05-09T03:53:23.368Z,1009.73
2023-05-09T03:54:23.344Z,1009.76
2023-05-09T03:55:23.356Z,1009.75
2023-05-09T03:56:23.332Z,1009.74
2023-05-09T03:57:23.314Z,1009.75
2023-05-09T03:58:23.341Z,1009.71
2023-05-09T03:59:23.295Z,1009.72
2023-05-09T04:00:23.298Z,1009.70
2023-05-09T04:01:23.277Z,1009.70
2023-05-09T04:02:23.317Z,1009.71
2023-05-09T04:03:23.315Z,1009.70
2023-05-09T04:04:23.240Z,1009.71
2023-05-09T04:05:23.257Z,1009.71
2023-05-09T04:06:23.211Z,1009.65
2023-05-09T04:07:23.216Z,1009.68
2023-05-09T04:08:23.189Z,1009.65
2023-05-09T04:09:23.191Z,1009.66
2023-05-09T04:10:23.168Z,1009.64
2023-05-09T04:11:23.182Z,1009.63
2023-05-09T04:12:23.149Z,1009.65
2023-05-09T04:13:23.351Z,1009.66
2023-05-09T04:14:23.121Z,1009.70
2023-05-09T04:15:23.111Z,1009.72
2023-05-09T04:16:23.121Z,1009.70
2023-05-09T04:17:23.103Z,1009.68
2023-05-09T04:18:23.122Z,1009.70
2023-05-09T04:19:23.075Z,1009.67
2023-05-09T04:20:23.054Z,1009.68
2023-05-09T04:21:23.069Z,1009.65
2023-05-09T04:22:23.037Z,1009.61
2023-05-09T04:23:23.022Z,1009.60
2023-05-09T04:24:23.015Z,1009.56
2023-05-09T04:25:23.028Z,1009.54
2023-05-09T04:26:22.992Z,1009.50
2023-05-09T04:27:22.977Z,1009.62
2023-05-09T04:28:22.971Z,1009.59
2023-05-09T04:29:22.955Z,1009.57
2023-05-09T04:30:22.943Z,1009.60
2023-05-09T04:31:23.019Z,1009.64
2023-05-09T04:32:22.934Z,1009.62
2023-05-09T04:33:22.910Z,1009.58
2023-05-09T04:34:22.904Z,1009.64
2023-05-09T04:35:23.142Z,1009.63
2023-05-09T04:36:22.883Z,1009.62
2023-05-09T04:37:22.894Z,1009.62
2023-05-09T04:38:22.866Z,1009.65
2023-05-09T04:39:22.850Z,1009.66
2023-05-09T04:40:23.987Z,1009.64
2023-05-09T04:41:22.841Z,1009.63
2023-05-09T04:42:22.812Z,1009.60
2023-05-09T04:43:22.808Z,1009.59
2023-05-09T04:44:22.792Z,1009.59
2023-05-09T04:45:22.782Z,1009.60
2023-05-09T04:46:25.031Z,1009.57
2023-05-09T04:47:22.864Z,1009.57
2023-05-09T04:48:22.753Z,1009.61
2023-05-09T04:49:22.735Z,1009.57
2023-05-09T04:50:22.732Z,1009.61
2023-05-09T04:51:22.715Z,1009.59
2023-05-09T04:52:22.734Z,1009.58
2023-05-09T04:53:22.698Z,1009.54
2023-05-09T04:54:22.686Z,1009.56
2023-05-09T04:55:22.661Z,1009.52
2023-05-09T04:56:22.691Z,1009.51
2023-05-09T04:57:22.651Z,1009.47
2023-05-09T04:58:22.649Z,1009.46
2023-05-09T04:59:22.639Z,1009.46
2023-05-09T05:00:22.640Z,1009.43
2023-05-09T05:01:22.778Z,1009.42
2023-05-09T05:02:22.715Z,1009.41
2023-05-09T05:03:22.581Z,1009.34
2023-05-09T05:04:22.585Z,1009.34
2023-05-09T05:05:25.442Z,1009.29
2023-05-09T05:06:22.563Z,1009.27
2023-05-09T05:07:22.531Z,1009.24
2023-05-09T05:08:22.520Z,1009.26
2023-05-09T05:09:22.516Z,1009.25
2023-05-09T05:10:22.523Z,1009.26
2023-05-09T05:11:22.491Z,1009.25
2023-05-09T05:12:22.487Z,1009.29
2023-05-09T05:13:22.544Z,1009.24
2023-05-09T05:14:22.458Z,1009.26
2023-05-09T05:15:22.439Z,1009.24
2023-05-09T05:16:22.483Z,1009.25
2023-05-09T05:17:22.532Z,1009.28
2023-05-09T05:18:22.442Z,1009.20
2023-05-09T05:19:22.397Z,1009.16
2023-05-09T05:20:22.392Z,1009.14
2023-05-09T05:21:22.374Z,1009.14
2023-05-09T05:22:22.369Z,1009.13
2023-05-09T05:23:22.376Z,1009.11
2023-05-09T05:24:22.373Z,1009.09
2023-05-09T05:25:22.350Z,1009.14
2023-05-09T05:26:22.320Z,1009.13
2023-05-09T05:27:22.311Z,1009.08
2023-05-09T05:28:22.290Z,1009.07
2023-05-09T05:29:22.325Z,1009.08
2023-05-09T05:30:22.278Z,1009.05
2023-05-09T05:31:22.292Z,1009.06
2023-05-09T05:32:22.255Z,1009.06
2023-05-09T05:33:22.241Z,1009.07
2023-05-09T05:34:22.241Z,1009.04
2023-05-09T05:35:22.238Z,1009.05
2023-05-09T05:36:22.216Z,1009.09
2023-05-09T05:37:22.200Z,1009.06
2023-05-09T05:38:22.188Z,1009.08
2023-05-09T05:39:22.170Z,1009.04
2023-05-09T05:40:22.201Z,1009.02
2023-05-09T05:41:22.148Z,1009.02
2023-05-09T05:42:22.155Z,1008.98
2023-05-09T05:43:22.128Z,1009.01
2023-05-09T05:44:22.126Z,1009.01
2023-05-09T05:45:22.170Z,1009.00
2023-05-09T05:46:22.222Z,1009.01
2023-05-09T05:47:22.092Z,1009.03
2023-05-09T05:48:22.076Z,1009.02
2023-05-09T05:49:22.057Z,1008.95
2023-05-09T05:50:22.051Z,1008.94
2023-05-09T05:51:22.078Z,1008.94
2023-05-09T05:52:22.030Z,1008.91
2023-05-09T05:53:22.010Z,1008.96
2023-05-09T05:54:21.999Z,1008.97
2023-05-09T05:55:21.990Z,1008.98
2023-05-09T05:56:21.982Z,1008.97
2023-05-09T05:57:21.998Z,1008.99
2023-05-09T05:58:21.975Z,1009.00
2023-05-09T05:59:21.942Z,1008.98
2023-05-09T06:00:21.934Z,1008.98
2023-05-09T06:01:21.923Z,1008.96
2023-05-09T06:02:21.968Z,1008.96
2023-05-09T06:03:22.067Z,1008.93
2023-05-09T06:04:22.115Z,1008.95
2023-05-09T06:05:21.901Z,1008.92
2023-05-09T06:06:21.886Z,1008.90
2023-05-09T06:07:21.849Z,1008.91
2023-05-09T06:08:21.879Z,1008.87
2023-05-09T06:09:21.841Z,1008.86
2023-05-09T06:10:21.827Z,1008.88
2023-05-09T06:11:21.821Z,1008.88
2023-05-09T06:12:21.804Z,1008.85
2023-05-09T06:13:21.914Z,1008.82
2023-05-09T06:14:21.806Z,1008.82
2023-05-09T06:15:21.764Z,1008.82
2023-05-09T06:16:21.797Z,1008.78
2023-05-09T06:17:22.593Z,1008.80
2023-05-09T06:18:21.737Z,1008.79
2023-05-09T06:19:21.726Z,1008.82
2023-05-09T06:20:21.733Z,1008.78
2023-05-09T06:21:21.707Z,1008.77
2023-05-09T06:22:21.714Z,1008.74
2023-05-09T06:23:21.727Z,1008.73
2023-05-09T06:24:34.446Z,1008.69
2023-05-09T06:25:21.657Z,1008.69
2023-05-09T06:26:21.643Z,1008.68
2023-05-09T06:27:21.657Z,1008.65
2023-05-09T06:28:21.626Z,1008.67
2023-05-09T06:29:21.608Z,1008.65
2023-05-09T06:30:26.212Z,1008.68
2023-05-09T06:31:22.028Z,1008.61
2023-05-09T06:32:21.610Z,1008.60
2023-05-09T06:33:21.582Z,1008.62
2023-05-09T06:34:21.560Z,1008.63
2023-05-09T06:35:21.640Z,1008.62
2023-05-09T06:36:21.553Z,1008.63
2023-05-09T06:37:21.527Z,1008.61
2023-05-09T06:38:21.553Z,1008.59
2023-05-09T06:39:21.508Z,1008.60
2023-05-09T06:40:21.508Z,1008.61
2023-05-09T06:41:21.513Z,1008.57
2023-05-09T06:42:21.504Z,1008.63
2023-05-09T06:43:21.493Z,1008.60
2023-05-09T06:44:21.448Z,1008.57
2023-05-09T06:45:21.476Z,1008.57
2023-05-09T06:46:21.505Z,1008.55
2023-05-09T06:47:21.419Z,1008.52
2023-05-09T06:48:21.423Z,1008.51
2023-05-09T06:49:21.396Z,1008.47
2023-05-09T06:50:21.391Z,1008.48
2023-05-09T06:51:21.387Z,1008.49
2023-05-09T06:52:21.373Z,1008.46
2023-05-09T06:53:21.352Z,1008.41
2023-05-09T06:54:21.366Z,1008.42
2023-05-09T06:55:21.346Z,1008.41
2023-05-09T06:56:21.341Z,1008.39
2023-05-09T06:57:21.308Z,1008.34
2023-05-09T06:58:21.293Z,1008.36
2023-05-09T06:59:21.299Z,1008.29
2023-05-09T07:00:21.274Z,1008.28
2023-05-09T07:01:21.274Z,1008.26
2023-05-09T07:02:21.264Z,1008.27
2023-05-09T07:03:21.237Z,1008.25
2023-05-09T07:04:21.271Z,1008.25
2023-05-09T07:05:21.229Z,1008.21
2023-05-09T07:06:21.216Z,1008.18
2023-05-09T07:07:21.191Z,1008.16
2023-05-09T07:08:21.186Z,1008.15
2023-05-09T07:09:21.178Z,1008.13
2023-05-09T07:10:27.319Z,1008.11
2023-05-09T07:11:21.168Z,1008.12
2023-05-09T07:12:21.158Z,1008.10
2023-05-09T07:13:21.287Z,1008.08
2023-05-09T07:14:21.130Z,1008.13
2023-05-09T07:15:36.751Z,1008.07
2023-05-09T07:16:21.172Z,1008.09
2023-05-09T07:17:23.903Z,1008.07
2023-05-09T07:18:21.088Z,1008.04
2023-05-09T07:19:22.058Z,1008.04
2023-05-09T07:20:21.080Z,1008.03
2023-05-09T07:21:21.039Z,1007.99
2023-05-09T07:22:21.050Z,1008.00
2023-05-09T07:23:21.010Z,1008.01
2023-05-09T07:24:21.007Z,1008.02
2023-05-09T07:25:21.009Z,1007.96
2023-05-09T07:26:21.022Z,1007.99
2023-05-09T07:27:20.976Z,1007.95
2023-05-09T07:28:20.965Z,1007.97
2023-05-09T07:29:20.954Z,1007.95
2023-05-09T07:30:20.990Z,1007.96
2023-05-09T07:31:20.950Z,1007.92
2023-05-09T07:32:20.947Z,1007.93
2023-05-09T07:33:20.910Z,1007.91
2023-05-09T07:34:20.913Z,1007.83
2023-05-09T07:35:20.940Z,1007.83
2023-05-09T07:36:20.877Z,1007.85
2023-05-09T07:37:20.863Z,1007.84
2023-05-09T07:38:20.862Z,1007.81
2023-05-09T07:39:20.842Z,1007.82
2023-05-09T07:40:20.832Z,1007.81
2023-05-09T07:41:20.845Z,1007.75
2023-05-09T07:42:20.808Z,1007.77
2023-05-09T07:43:20.805Z,1007.82
2023-05-09T07:44:20.795Z,1007.80
2023-05-09T07:45:23.513Z,1007.78
2023-05-09T07:46:20.865Z,1007.76
2023-05-09T07:47:20.780Z,1007.76
2023-05-09T07:48:20.785Z,1007.76
2023-05-09T07:49:20.723Z,1007.75
2023-05-09T07:50:20.714Z,1007.77
2023-05-09T07:51:20.706Z,1007.73
2023-05-09T07:52:20.707Z,1007.73
2023-05-09T07:53:20.708Z,1007.72
2023-05-09T07:54:20.686Z,1007.74
2023-05-09T07:55:20.656Z,1007.70
2023-05-09T07:56:20.660Z,1007.69
2023-05-09T07:57:20.650Z,1007.67
2023-05-09T07:58:20.653Z,1007.60
2023-05-09T07:59:20.676Z,1007.63
2023-05-09T08:00:20.608Z,1007.62
2023-05-09T08:01:20.597Z,1007.59
2023-05-09T08:02:20.631Z,1007.56
2023-05-09T08:03:20.671Z,1007.54
2023-05-09T08:04:20.655Z,1007.52
2023-05-09T08:05:20.571Z,1007.58
2023-05-09T08:06:20.541Z,1007.55
2023-05-09T08:07:20.521Z,1007.56
2023-05-09T08:08:20.540Z,1007.55
2023-05-09T08:09:20.512Z,1007.52
2023-05-09T08:10:20.495Z,1007.51
2023-05-09T08:11:20.512Z,1007.49
2023-05-09T08:12:20.472Z,1007.53
2023-05-09T08:13:20.642Z,1007.46
2023-05-09T08:14:20.455Z,1007.49
2023-05-09T08:15:20.429Z,1007.49
2023-05-09T08:16:20.531Z,1007.46
2023-05-09T08:17:20.439Z,1007.48
2023-05-09T08:18:20.407Z,1007.49
2023-05-09T08:19:20.399Z,1007.49
2023-05-09T08:20:20.382Z,1007.46
2023-05-09T08:21:22.150Z,1007.45
2023-05-09T08:22:20.393Z,1007.40
2023-05-09T08:23:20.393Z,1007.41
2023-05-09T08:24:20.420Z,1007.36
2023-05-09T08:25:20.343Z,1007.32
2023-05-09T08:26:20.331Z,1007.35
2023-05-09T08:27:20.309Z,1007.31
2023-05-09T08:28:21.165Z,1007.27
2023-05-09T08:29:20.307Z,1007.21
2023-05-09T08:30:20.273Z,1007.25
2023-05-09T08:31:20.307Z,1007.26
2023-05-09T08:32:20.264Z,1007.22
2023-05-09T08:33:20.262Z,1007.23
2023-05-09T08:34:20.256Z,1007.17
2023-05-09T08:35:20.253Z,1007.09
2023-05-09T08:36:20.208Z,1007.18
2023-05-09T08:37:20.230Z,1007.09
2023-05-09T08:38:20.192Z,1007.09
2023-05-09T08:39:20.180Z,1007.11
2023-05-09T08:40:20.173Z,1007.08
2023-05-09T08:41:20.172Z,1007.08
2023-05-09T08:42:20.150Z,1007.06
2023-05-09T08:43:20.151Z,1007.04
2023-05-09T08:44:20.119Z,1007.06
2023-05-09T08:45:20.140Z,1006.96
2023-05-09T08:46:20.110Z,1006.97
2023-05-09T08:47:20.106Z,1007.00
2023-05-09T08:48:20.081Z,1006.96
2023-05-09T08:49:20.068Z,1006.97
2023-05-09T08:50:20.270Z,1006.97
2023-05-09T08:51:20.067Z,1006.94
2023-05-09T08:52:20.041Z,1006.98
2023-05-09T08:53:20.028Z,1006.97
2023-05-09T08:54:22.159Z,1006.97
2023-05-09T08:55:20.016Z,1006.91
2023-05-09T08:56:19.987Z,1006.91
2023-05-09T08:57:20.010Z,1006.92
2023-05-09T08:58:19.975Z,1006.91
2023-05-09T08:59:19.954Z,1006.91
2023-05-09T09:00:20.832Z,1006.87
2023-05-09T09:01:19.954Z,1006.86
2023-05-09T09:02:19.953Z,1006.87
2023-05-09T09:03:19.934Z,1006.80
2023-05-09T09:04:19.953Z,1006.84
2023-05-09T09:05:39.887Z,1006.83
2023-05-09T09:06:19.891Z,1006.85
2023-05-09T09:07:19.905Z,1006.84
2023-05-09T09:08:19.865Z,1006.77
2023-05-09T09:09:19.844Z,1006.79
2023-05-09T09:10:19.850Z,1006.79
2023-05-09T09:11:19.830Z,1006.78
2023-05-09T09:12:19.808Z,1006.79
2023-05-09T09:13:19.852Z,1006.76
2023-05-09T09:14:19.812Z,1006.76
2023-05-09T09:15:19.780Z,1006.76
2023-05-09T09:16:19.818Z,1006.71
2023-05-09T09:17:19.768Z,1006.69
2023-05-09T09:18:19.770Z,1006.68
2023-05-09T09:19:19.741Z,1006.73
2023-05-09T09:20:19.741Z,1006.69
2023-05-09T09:21:19.727Z,1006.65
2023-05-09T09:22:19.703Z,1006.67
2023-05-09T09:23:19.715Z,1006.63
2023-05-09T09:24:19.675Z,1006.67
2023-05-09T09:25:19.667Z,1006.61
2023-05-09T09:26:19.661Z,1006.61
2023-05-09T09:27:19.672Z,1006.61
2023-05-09T09:28:19.640Z,1006.60
2023-05-09T09:30:28.862Z,1006.59
2023-05-09T09:31:29.885Z,1006.57
2023-05-09T09:32:29.940Z,1006.57
2023-05-09T09:33:50.856Z,1006.57
2023-05-09T09:34:50.826Z,1006.53
2023-05-09T09:35:29.847Z,1006.50
2023-05-09T09:36:29.802Z,1006.48
2023-05-09T09:37:29.787Z,1006.48
2023-05-09T09:38:29.776Z,1006.46
2023-05-09T09:39:29.773Z,1006.46
2023-05-09T09:40:29.788Z,1006.41
2023-05-09T09:41:29.745Z,1006.43
2023-05-09T09:42:29.743Z,1006.40
2023-05-09T09:43:29.741Z,1006.39
2023-05-09T09:44:29.722Z,1006.42
2023-05-09T09:45:29.722Z,1006.40
2023-05-09T09:46:29.751Z,1006.41
2023-05-09T09:47:29.729Z,1006.40
2023-05-09T09:48:29.665Z,1006.39
2023-05-09T09:49:29.663Z,1006.37
2023-05-09T09:50:29.648Z,1006.42
2023-05-09T09:51:29.654Z,1006.38
2023-05-09T09:52:29.635Z,1006.37
2023-05-09T09:53:29.645Z,1006.31
2023-05-09T09:54:29.626Z,1006.27
2023-05-09T09:55:29.659Z,1006.26
2023-05-09T09:56:29.610Z,1006.28
2023-05-09T09:57:29.582Z,1006.24
2023-05-09T09:58:30.427Z,1006.20
2023-05-09T09:59:29.552Z,1006.23
2023-05-09T10:00:29.588Z,1006.25
2023-05-09T10:01:29.615Z,1006.21
2023-05-09T10:02:29.570Z,1006.20
2023-05-09T10:03:29.532Z,1006.16
2023-05-09T10:04:29.487Z,1006.14
2023-05-09T10:05:29.480Z,1006.13
2023-05-09T10:06:29.499Z,1006.13
2023-05-09T10:07:29.459Z,1006.13
2023-05-09T10:08:29.455Z,1006.08
2023-05-09T10:09:29.439Z,1006.04
2023-05-09T10:10:29.441Z,1006.03
2023-05-09T10:11:29.451Z,1006.03
2023-05-09T10:12:29.410Z,1006.01
2023-05-09T10:13:29.417Z,1006.04
2023-05-09T10:14:29.392Z,1006.01
2023-05-09T10:15:35.671Z,1006.04
2023-05-09T10:16:42.595Z,1005.99
2023-05-09T10:17:29.502Z,1005.99
2023-05-09T10:18:29.854Z,1005.99
2023-05-09T10:19:29.328Z,1005.94
2023-05-09T10:20:29.324Z,1005.94
2023-05-09T10:21:29.314Z,1005.93
2023-05-09T10:22:29.303Z,1005.95
2023-05-09T10:23:29.336Z,1005.96
2023-05-09T10:24:29.286Z,1005.88
2023-05-09T10:25:29.261Z,1005.85
2023-05-09T10:26:29.268Z,1005.90
2023-05-09T10:27:29.243Z,1005.85
2023-05-09T10:28:29.248Z,1005.83
2023-05-09T10:29:29.224Z,1005.85
2023-05-09T10:30:30.233Z,1005.83
2023-05-09T10:31:29.541Z,1005.90
2023-05-09T10:32:29.213Z,1005.86
2023-05-09T10:33:29.204Z,1005.85
2023-05-09T10:34:29.169Z,1005.84
2023-05-09T10:35:29.168Z,1005.82
2023-05-09T10:36:29.166Z,1005.80
2023-05-09T10:37:29.849Z,1005.81
2023-05-09T10:38:29.162Z,1005.75
2023-05-09T10:39:29.110Z,1005.70
2023-05-09T10:40:29.132Z,1005.73
2023-05-09T10:41:29.078Z,1005.73
2023-05-09T10:42:29.080Z,1005.68
2023-05-09T10:43:29.470Z,1005.68
2023-05-09T10:44:29.094Z,1005.61
2023-05-09T10:45:29.050Z,1005.63
2023-05-09T10:46:29.065Z,1005.66
2023-05-09T10:47:29.085Z,1005.64
2023-05-09T10:48:29.041Z,1005.66
2023-05-09T10:49:29.025Z,1005.58
2023-05-09T10:50:29.010Z,1005.63
2023-05-09T10:51:28.979Z,1005.56
2023-05-09T10:52:28.970Z,1005.58
2023-05-09T10:53:28.956Z,1005.55
2023-05-09T10:54:30.888Z,1005.51
2023-05-09T10:55:28.954Z,1005.49
2023-05-09T10:56:28.927Z,1005.44
2023-05-09T10:57:28.917Z,1005.43
2023-05-09T10:58:28.907Z,1005.44
2023-05-09T10:59:28.890Z,1005.39
2023-05-09T11:00:28.906Z,1005.37
2023-05-09T11:01:28.915Z,1005.34
2023-05-09T11:02:28.915Z,1005.38
2023-05-09T11:03:28.949Z,1005.30
2023-05-09T11:04:28.846Z,1005.28
2023-05-09T11:05:28.847Z,1005.29
2023-05-09T11:06:28.821Z,1005.24
2023-05-09T11:07:28.813Z,1005.20
2023-05-09T11:08:28.805Z,1005.28
2023-05-09T11:09:28.819Z,1005.17
2023-05-09T11:10:28.797Z,1005.24
2023-05-09T11:11:28.788Z,1005.18
2023-05-09T11:12:28.755Z,1005.22
2023-05-09T11:13:28.785Z,1005.19
2023-05-09T11:14:28.729Z,1005.16
2023-05-09T11:15:28.718Z,1005.12
2023-05-09T11:16:28.780Z,1005.11
2023-05-09T11:17:28.730Z,1005.05
2023-05-09T11:18:28.688Z,1005.04
2023-05-09T11:19:28.674Z,1005.07
2023-05-09T11:20:28.665Z,1005.05
2023-05-09T11:21:28.678Z,1005.07
2023-05-09T11:22:28.668Z,1005.17
2023-05-09T11:23:28.654Z,1004.98
2023-05-09T11:24:28.630Z,1005.07
2023-05-09T11:25:28.611Z,1005.03
2023-05-09T11:26:28.631Z,1004.89
2023-05-09T11:27:28.620Z,1004.99
2023-05-09T11:28:28.576Z,1004.90
2023-05-09T11:29:28.566Z,1004.87
2023-05-09T11:30:28.560Z,1004.89
2023-05-09T11:31:28.592Z,1004.91
2023-05-09T11:32:28.555Z,1004.84
2023-05-09T11:33:28.539Z,1004.87
2023-05-09T11:34:28.516Z,1004.86
2023-05-09T11:35:28.514Z,1004.83
2023-05-09T11:36:28.520Z,1004.81
2023-05-09T11:37:28.480Z,1004.71
2023-05-09T11:38:28.472Z,1004.64
2023-05-09T11:39:28.463Z,1004.67
2023-05-09T11:40:28.458Z,1004.67
2023-05-09T11:41:28.439Z,1004.69
2023-05-09T11:42:28.456Z,1004.74
2023-05-09T11:43:28.449Z,1004.72
2023-05-09T11:44:28.420Z,1004.65
2023-05-09T11:45:28.396Z,1004.68
2023-05-09T11:46:28.455Z,1004.70
2023-05-09T11:47:28.442Z,1004.57
2023-05-09T11:48:28.382Z,1004.59
2023-05-09T11:49:28.358Z,1004.62
2023-05-09T11:50:28.368Z,1004.61
2023-05-09T11:51:28.349Z,1004.50
2023-05-09T11:52:28.360Z,1004.56
2023-05-09T11:53:28.325Z,1004.50
2023-05-09T11:54:28.378Z,1004.40
2023-05-09T11:55:28.300Z,1004.37
2023-05-09T11:56:28.291Z,1004.33
2023-05-09T11:57:28.293Z,1004.38
2023-05-09T11:58:28.270Z,1004.39
2023-05-09T11:59:28.259Z,1004.27
2023-05-09T12:00:28.272Z,1004.29
2023-05-09T12:01:28.229Z,1004.27
2023-05-09T12:02:28.311Z,1004.22
2023-05-09T12:03:28.399Z,1004.29
2023-05-09T12:04:28.258Z,1004.33
2023-05-09T12:05:28.197Z,1004.28
2023-05-09T12:06:28.196Z,1004.28